createdAt,value
2023-03-05T00:00:34.238Z,18.25
2023-03-05T00:03:03.276Z,18.26
2023-03-05T00:05:30.943Z,18.24
2023-03-05T00:07:58.681Z,18.24
2023-03-05T00:10:26.401Z,18.25
2023-03-05T00:12:54.080Z,18.26
2023-03-05T00:15:21.761Z,18.24
2023-03-05T00:17:49.452Z,18.25
2023-03-05T00:20:18.905Z,18.25
2023-03-05T00:22:46.611Z,18.24
2023-03-05T00:25:14.560Z,18.23
2023-03-05T00:27:42.431Z,18.24
2023-03-05T00:30:11.354Z,18.23
2023-03-05T00:32:39.056Z,18.24
2023-03-05T00:35:07.393Z,18.27
2023-03-05T00:37:36.422Z,18.27
2023-03-05T00:40:04.426Z,18.27
2023-03-05T00:42:33.591Z,18.29
2023-03-05T00:45:01.393Z,18.28
2023-03-05T00:47:29.091Z,18.26
2023-03-05T00:49:56.776Z,18.22
2023-03-05T00:52:24.490Z,18.24
2023-03-05T00:54:53.530Z,18.24
2023-03-05T00:57:21.202Z,18.25
2023-03-05T00:59:49.110Z,18.25
2023-03-05T01:02:16.863Z,18.24
2023-03-05T01:04:47.092Z,18.24
2023-03-05T01:07:14.779Z,18.24
2023-03-05T01:09:42.481Z,18.25
2023-03-05T01:12:11.624Z,18.27
2023-03-05T01:14:39.313Z,18.29
2023-03-05T01:17:07.141Z,18.28
2023-03-05T01:19:34.829Z,18.27
2023-03-05T01:22:02.573Z,18.30
2023-03-05T01:24:31.347Z,18.28
2023-03-05T01:26:59.164Z,18.27
2023-03-05T01:29:28.282Z,18.29
2023-03-05T01:31:56.077Z,18.29
2023-03-05T01:34:23.746Z,18.28
2023-03-05T01:36:51.436Z,18.29
2023-03-05T01:39:19.121Z,18.31
2023-03-05T01:41:46.835Z,18.31
2023-03-05T01:44:22.313Z,18.32
2023-03-05T01:46:51.404Z,18.32
2023-03-05T01:49:21.908Z,18.31
2023-03-05T01:52:02.130Z,18.29
2023-03-05T01:54:33.522Z,18.29
2023-03-05T01:57:03.030Z,18.30
2023-03-05T01:59:30.789Z,18.33
2023-03-05T02:02:00.469Z,18.30
2023-03-05T02:04:31.728Z,18.28
2023-03-05T02:06:59.460Z,18.26
2023-03-05T02:09:28.706Z,18.26
2023-03-05T02:11:56.536Z,18.25
2023-03-05T02:14:24.412Z,18.25
2023-03-05T02:16:52.491Z,18.22
2023-03-05T02:19:21.535Z,18.27
2023-03-05T02:21:50.876Z,18.29
2023-03-05T02:24:19.357Z,18.31
2023-03-05T02:26:47.064Z,18.31
2023-03-05T02:29:17.297Z,18.34
2023-03-05T02:31:45.077Z,18.32
2023-03-05T02:34:12.825Z,18.35
2023-03-05T02:36:40.538Z,18.36
2023-03-05T02:39:10.631Z,18.36
2023-03-05T02:41:38.319Z,18.35
2023-03-05T02:44:06.312Z,18.35
2023-03-05T02:46:34.038Z,18.35
2023-03-05T02:49:01.758Z,18.36
2023-03-05T02:51:29.436Z,18.35
2023-03-05T02:53:57.132Z,18.32
2023-03-05T02:56:26.183Z,18.33
2023-03-05T02:58:53.880Z,18.33
2023-03-05T03:01:21.702Z,18.34
2023-03-05T03:03:49.467Z,18.37
2023-03-05T03:06:17.160Z,18.33
2023-03-05T03:08:44.905Z,18.35
2023-03-05T03:11:13.320Z,18.33
2023-03-05T03:13:42.417Z,18.39
2023-03-05T03:16:11.449Z,18.37
2023-03-05T03:18:39.133Z,18.39
2023-03-05T03:21:07.255Z,18.41
2023-03-05T03:23:35.003Z,18.39
2023-03-05T03:26:02.683Z,18.41
2023-03-05T03:28:30.375Z,18.42
2023-03-05T03:30:59.467Z,18.40
2023-03-05T03:33:27.261Z,18.42
2023-03-05T03:35:55.000Z,18.42
2023-03-05T03:38:22.731Z,18.42
2023-03-05T03:40:50.440Z,18.40
2023-03-05T03:43:18.108Z,18.40
2023-03-05T03:45:45.994Z,18.39
2023-03-05T03:48:15.167Z,18.40
2023-03-05T03:50:43.093Z,18.39
2023-03-05T03:53:14.092Z,18.39
2023-03-05T03:55:42.410Z,18.33
2023-03-05T03:58:10.114Z,18.30
2023-03-05T04:00:37.840Z,18.27
2023-03-05T04:03:05.575Z,18.26
2023-03-05T04:05:34.668Z,18.23
2023-03-05T04:08:03.456Z,18.15
2023-03-05T04:10:31.180Z,18.09
2023-03-05T04:12:58.851Z,18.06
2023-03-05T04:15:26.572Z,18.08
2023-03-05T04:17:54.245Z,18.05
2023-03-05T04:20:21.956Z,18.06
2023-03-05T04:22:51.136Z,18.07
2023-03-05T04:25:18.838Z,18.10
2023-03-05T04:27:46.524Z,18.12
2023-03-05T04:30:14.829Z,18.12
2023-03-05T04:32:42.660Z,18.15
2023-03-05T04:35:10.586Z,18.17
2023-03-05T04:37:38.285Z,18.17
2023-03-05T04:40:10.344Z,18.17
2023-03-05T04:42:38.046Z,18.16
2023-03-05T04:45:06.748Z,18.16
2023-03-05T04:47:34.443Z,18.19
2023-03-05T04:50:02.138Z,18.19
2023-03-05T04:52:29.863Z,18.19
2023-03-05T04:54:57.523Z,18.16
2023-03-05T04:57:26.549Z,18.17
2023-03-05T04:59:54.361Z,18.18
2023-03-05T05:02:22.124Z,18.22
2023-03-05T05:04:49.804Z,18.22
2023-03-05T05:07:17.480Z,18.23
2023-03-05T05:09:45.213Z,18.23
2023-03-05T05:12:12.900Z,18.24
2023-03-05T05:14:41.981Z,18.22
2023-03-05T05:17:10.361Z,18.23
2023-03-05T05:19:38.148Z,18.25
2023-03-05T05:22:05.948Z,18.23
2023-03-05T05:24:33.637Z,18.26
2023-03-05T05:27:01.386Z,18.26
2023-03-05T05:29:29.118Z,18.23
2023-03-05T05:31:58.190Z,18.27
2023-03-05T05:34:26.115Z,18.30
2023-03-05T05:36:53.901Z,18.32
2023-03-05T05:39:21.625Z,18.31
2023-03-05T05:41:51.444Z,18.31
2023-03-05T05:44:19.146Z,18.34
2023-03-05T05:46:46.888Z,18.30
2023-03-05T05:49:15.938Z,18.30
2023-03-05T05:51:43.608Z,18.28
2023-03-05T05:54:13.650Z,18.31
2023-03-05T05:56:41.444Z,18.32
2023-03-05T05:59:09.239Z,18.34
2023-03-05T06:01:36.995Z,18.34
2023-03-05T06:04:04.919Z,18.31
2023-03-05T06:06:34.868Z,18.36
2023-03-05T06:09:02.745Z,18.34
2023-03-05T06:11:30.452Z,18.32
2023-03-05T06:13:58.132Z,18.34
2023-03-05T06:16:25.911Z,18.34
2023-03-05T06:18:53.787Z,18.34
2023-03-05T06:21:22.157Z,18.35
2023-03-05T06:23:51.526Z,18.36
2023-03-05T06:26:20.159Z,18.36
2023-03-05T06:28:47.842Z,18.34
2023-03-05T06:31:16.747Z,18.35
2023-03-05T06:33:44.547Z,18.37
2023-03-05T06:36:13.044Z,18.36
2023-03-05T06:38:40.740Z,18.38
2023-03-05T06:41:11.508Z,18.38
2023-03-05T06:43:39.975Z,18.37
2023-03-05T06:46:08.581Z,18.40
2023-03-05T06:48:36.279Z,18.41
2023-03-05T06:51:04.193Z,18.40
2023-03-05T06:53:31.883Z,18.41
2023-03-05T06:56:01.882Z,18.44
2023-03-05T06:58:30.911Z,18.43
2023-03-05T07:00:58.620Z,18.42
2023-03-05T07:03:26.284Z,18.44
2023-03-05T07:05:53.965Z,18.45
2023-03-05T07:08:21.644Z,18.44
2023-03-05T07:10:49.330Z,18.42
2023-03-05T07:13:17.021Z,18.42
2023-03-05T07:15:46.114Z,18.43
2023-03-05T07:18:13.816Z,18.41
2023-03-05T07:20:41.623Z,18.39
2023-03-05T07:23:09.285Z,18.40
2023-03-05T07:25:37.076Z,18.42
2023-03-05T07:28:05.382Z,18.42
2023-03-05T07:30:33.074Z,18.42
2023-03-05T07:33:02.611Z,18.43
2023-03-05T07:35:30.305Z,18.44
2023-03-05T07:37:58.032Z,18.44
2023-03-05T07:40:25.738Z,18.44
2023-03-05T07:42:54.497Z,18.47
2023-03-05T07:45:22.159Z,18.47
2023-03-05T07:47:52.450Z,18.47
2023-03-05T07:50:21.604Z,18.46
2023-03-05T07:52:49.329Z,18.45
2023-03-05T07:55:17.123Z,18.45
2023-03-05T07:57:44.791Z,18.47
2023-03-05T08:00:13.722Z,18.47
2023-03-05T08:02:41.469Z,18.48
2023-03-05T08:05:09.388Z,18.49
2023-03-05T08:07:38.457Z,18.49
2023-03-05T08:10:07.460Z,18.52
2023-03-05T08:12:35.452Z,18.54
2023-03-05T08:15:03.289Z,18.56
2023-03-05T08:17:30.942Z,18.57
2023-03-05T08:20:00.167Z,18.58
2023-03-05T08:22:27.978Z,18.60
2023-03-05T08:24:57.025Z,18.62
2023-03-05T08:27:24.720Z,18.61
2023-03-05T08:29:52.388Z,18.60
2023-03-05T08:32:20.095Z,18.60
2023-03-05T08:34:47.838Z,18.59
2023-03-05T08:37:15.505Z,18.62
2023-03-05T08:39:43.208Z,18.60
2023-03-05T08:42:12.291Z,18.62
2023-03-05T08:44:39.957Z,18.63
2023-03-05T08:47:07.880Z,18.64
2023-03-05T08:49:35.655Z,18.63
2023-03-05T08:52:03.339Z,18.60
2023-03-05T08:54:30.995Z,18.63
2023-03-05T08:56:58.676Z,18.67
2023-03-05T08:59:27.792Z,18.70
2023-03-05T09:01:55.514Z,18.68
2023-03-05T09:04:23.230Z,18.66
2023-03-05T09:06:50.912Z,18.64
2023-03-05T09:09:20.672Z,18.62
2023-03-05T09:11:48.343Z,18.60
2023-03-05T09:14:15.996Z,18.62
2023-03-05T09:16:45.058Z,18.66
2023-03-05T09:19:15.053Z,18.73
2023-03-05T09:21:42.939Z,18.71
2023-03-05T09:24:11.707Z,18.69
2023-03-05T09:26:40.961Z,18.64
2023-03-05T09:29:08.817Z,18.58
2023-03-05T09:31:36.807Z,18.56
2023-03-05T09:34:05.993Z,18.57
2023-03-05T09:36:33.952Z,18.56
2023-03-05T09:39:01.639Z,18.56
2023-03-05T09:41:34.406Z,18.59
2023-03-05T09:44:08.841Z,18.63
2023-03-05T09:46:43.824Z,18.67
2023-03-05T09:49:18.693Z,18.72
2023-03-05T09:51:47.252Z,18.74
2023-03-05T09:54:15.973Z,18.74
2023-03-05T09:56:44.830Z,18.76
2023-03-05T09:59:22.191Z,18.78
2023-03-05T10:01:49.864Z,18.80
2023-03-05T10:04:20.029Z,18.76
2023-03-05T10:06:50.116Z,18.73
2023-03-05T10:09:22.151Z,18.71
2023-03-05T10:11:52.491Z,18.70
2023-03-05T10:14:25.302Z,18.72
2023-03-05T10:17:19.433Z,18.75
2023-03-05T10:20:02.934Z,18.76
2023-03-05T10:22:31.686Z,18.76
2023-03-05T10:25:11.114Z,18.81
2023-03-05T10:27:44.008Z,18.80
2023-03-05T10:30:23.860Z,18.77
2023-03-05T10:32:53.752Z,18.80
2023-03-05T10:35:33.586Z,18.83
2023-03-05T10:38:37.190Z,18.88
2023-03-05T10:41:08.470Z,18.89
2023-03-05T10:43:37.493Z,18.89
2023-03-05T10:46:05.508Z,18.88
2023-03-05T10:48:36.357Z,18.91
2023-03-05T10:51:06.147Z,18.90
2023-03-05T10:53:34.744Z,18.95
2023-03-05T10:56:03.576Z,18.97
2023-03-05T10:58:31.236Z,19.01
2023-03-05T11:01:04.103Z,19.00
2023-03-05T11:03:51.346Z,18.98
2023-03-05T11:06:30.007Z,18.99
2023-03-05T11:08:58.238Z,19.00
2023-03-05T11:11:25.959Z,19.04
2023-03-05T11:13:55.889Z,19.08
2023-03-05T11:16:24.806Z,19.07
2023-03-05T11:18:54.887Z,19.11
2023-03-05T11:21:27.576Z,19.13
2023-03-05T11:24:14.851Z,19.16
2023-03-05T11:26:50.157Z,19.16
2023-03-05T11:29:20.357Z,19.17
2023-03-05T11:31:48.032Z,19.14
2023-03-05T11:34:30.241Z,19.13
2023-03-05T11:37:03.698Z,19.14
2023-03-05T11:39:35.240Z,19.13
2023-03-05T11:42:04.098Z,19.10
2023-03-05T11:44:34.452Z,19.11
2023-03-05T11:47:03.476Z,19.08
2023-03-05T11:49:32.892Z,19.09
2023-03-05T11:52:06.855Z,19.04
2023-03-05T11:54:40.207Z,19.02
2023-03-05T11:57:10.618Z,19.00
2023-03-05T11:59:40.239Z,18.98
2023-03-05T12:02:19.347Z,18.96
2023-03-05T12:04:47.320Z,18.95
2023-03-05T12:07:16.341Z,19.00
2023-03-05T12:09:47.557Z,19.01
2023-03-05T12:12:23.856Z,19.05
2023-03-05T12:14:52.809Z,19.09
2023-03-05T12:17:22.743Z,19.09
2023-03-05T12:19:52.905Z,19.07
2023-03-05T12:22:21.889Z,19.09
2023-03-05T12:24:51.203Z,19.04
2023-03-05T12:27:33.808Z,19.01
2023-03-05T12:30:02.466Z,19.00
2023-03-05T12:33:03.312Z,18.98
2023-03-05T12:35:35.852Z,19.00
2023-03-05T12:38:28.418Z,19.06
2023-03-05T12:41:35.651Z,19.07
2023-03-05T12:44:20.676Z,19.11
2023-03-05T12:47:17.654Z,19.12
2023-03-05T12:49:46.451Z,19.11
2023-03-05T12:52:20.114Z,19.07
2023-03-05T12:54:51.823Z,19.02
2023-03-05T12:57:22.504Z,19.01
2023-03-05T12:59:52.450Z,19.01
2023-03-05T13:02:22.986Z,18.99
2023-03-05T13:04:53.046Z,18.97
2023-03-05T13:07:20.771Z,18.93
2023-03-05T13:09:55.259Z,18.91
2023-03-05T13:12:24.543Z,18.94
2023-03-05T13:14:58.467Z,18.99
2023-03-05T13:17:34.619Z,19.03
2023-03-05T13:20:06.037Z,19.04
2023-03-05T13:22:33.855Z,19.05
2023-03-05T13:25:14.733Z,19.07
2023-03-05T13:27:43.893Z,19.08
2023-03-05T13:30:24.807Z,19.08
2023-03-05T13:32:53.428Z,19.09
2023-03-05T13:35:22.455Z,19.07
2023-03-05T13:37:50.369Z,19.05
2023-03-05T13:40:23.633Z,19.03
2023-03-05T13:42:53.232Z,19.03
2023-03-05T13:45:26.549Z,19.04
2023-03-05T13:47:56.155Z,19.06
2023-03-05T13:50:25.637Z,19.03
2023-03-05T13:52:53.435Z,19.01
2023-03-05T13:55:21.124Z,19.03
2023-03-05T13:57:51.027Z,19.06
2023-03-05T14:00:31.781Z,19.09
2023-03-05T14:03:01.363Z,19.07
2023-03-05T14:05:29.166Z,19.04
2023-03-05T14:07:56.858Z,19.01
2023-03-05T14:10:28.981Z,18.98
2023-03-05T14:12:56.687Z,18.97
2023-03-05T14:15:25.685Z,18.99
2023-03-05T14:17:54.732Z,19.02
2023-03-05T14:20:24.256Z,19.03
2023-03-05T14:22:53.168Z,19.03
2023-03-05T14:25:28.763Z,19.03
2023-03-05T14:27:56.498Z,19.05
2023-03-05T14:30:24.692Z,19.00
2023-03-05T14:32:54.223Z,19.01
2023-03-05T14:35:22.905Z,19.02
2023-03-05T14:37:51.220Z,19.06
2023-03-05T14:40:20.657Z,19.10
2023-03-05T14:42:52.554Z,19.09
2023-03-05T14:45:21.742Z,19.07
2023-03-05T14:47:50.542Z,19.04
2023-03-05T14:50:20.780Z,19.03
2023-03-05T14:52:48.963Z,18.99
2023-03-05T14:55:16.990Z,18.97
2023-03-05T14:57:44.652Z,18.95
2023-03-05T15:00:16.924Z,18.95
2023-03-05T15:02:44.715Z,18.94
2023-03-05T15:05:12.516Z,18.94
2023-03-05T15:07:41.628Z,18.95
2023-03-05T15:10:09.697Z,18.91
2023-03-05T15:12:37.354Z,18.90
2023-03-05T15:15:06.482Z,18.89
2023-03-05T15:17:35.840Z,18.88
2023-03-05T15:20:06.627Z,18.88
2023-03-05T15:22:34.299Z,18.86
2023-03-05T15:25:03.366Z,18.84
2023-03-05T15:27:31.059Z,18.84
2023-03-05T15:29:59.480Z,18.86
2023-03-05T15:32:28.005Z,18.88
2023-03-05T15:34:55.786Z,18.89
2023-03-05T15:37:23.478Z,18.89
2023-03-05T15:39:51.225Z,18.89
2023-03-05T15:42:20.288Z,18.86
2023-03-05T15:44:47.995Z,18.87
2023-03-05T15:47:17.167Z,18.88
2023-03-05T15:49:44.846Z,18.87
2023-03-05T15:52:12.518Z,18.87
2023-03-05T15:54:40.197Z,18.87
2023-03-05T15:57:09.897Z,18.86
2023-03-05T15:59:38.947Z,18.86
2023-03-05T16:02:06.674Z,18.84
2023-03-05T16:04:34.342Z,18.84
2023-03-05T16:07:02.970Z,18.84
2023-03-05T16:09:32.507Z,18.81
2023-03-05T16:12:00.166Z,18.82
2023-03-05T16:14:28.612Z,18.82
2023-03-05T16:16:57.621Z,18.84
2023-03-05T16:19:25.277Z,18.84
2023-03-05T16:21:52.939Z,18.82
2023-03-05T16:24:20.640Z,18.81
2023-03-05T16:26:48.299Z,18.79
2023-03-05T16:29:15.999Z,18.78
2023-03-05T16:31:45.313Z,18.80
2023-03-05T16:34:16.125Z,18.79
2023-03-05T16:36:47.916Z,18.80
2023-03-05T16:39:15.643Z,18.78
2023-03-05T16:41:43.356Z,18.79
2023-03-05T16:44:11.034Z,18.79
2023-03-05T16:46:38.855Z,18.79
2023-03-05T16:49:07.129Z,18.79
2023-03-05T16:51:36.164Z,18.79
2023-03-05T16:54:03.936Z,18.79
2023-03-05T16:56:31.605Z,18.76
2023-03-05T16:58:59.278Z,18.76
2023-03-05T17:01:27.012Z,18.75
2023-03-05T17:03:55.024Z,18.78
2023-03-05T17:06:23.576Z,18.77
2023-03-05T17:08:52.882Z,18.77
2023-03-05T17:11:20.963Z,18.80
2023-03-05T17:13:49.184Z,18.80
2023-03-05T17:16:17.410Z,18.80
2023-03-05T17:18:45.128Z,18.79
2023-03-05T17:21:12.902Z,18.79
2023-03-05T17:23:40.755Z,18.78
2023-03-05T17:26:10.640Z,18.79
2023-03-05T17:28:38.440Z,18.81
2023-03-05T17:31:06.489Z,18.82
2023-03-05T17:33:34.205Z,18.82
2023-03-05T17:36:01.965Z,18.82
2023-03-05T17:38:29.629Z,18.79
2023-03-05T17:40:57.326Z,18.81
2023-03-05T17:43:26.374Z,18.82
2023-03-05T17:45:59.416Z,18.80
2023-03-05T17:48:27.161Z,18.80
2023-03-05T17:50:54.875Z,18.79
2023-03-05T17:53:22.646Z,18.79
2023-03-05T17:55:50.440Z,18.79
2023-03-05T17:58:18.127Z,18.80
2023-03-05T18:00:47.253Z,18.80
2023-03-05T18:03:14.932Z,18.81
2023-03-05T18:05:42.617Z,18.80
2023-03-05T18:08:10.274Z,18.80
2023-03-05T18:10:38.028Z,18.81
2023-03-05T18:13:05.676Z,18.83
2023-03-05T18:15:33.335Z,18.84
2023-03-05T18:18:02.353Z,18.83
2023-03-05T18:20:30.910Z,18.82
2023-03-05T18:22:58.772Z,18.82
2023-03-05T18:25:30.784Z,18.81
2023-03-05T18:27:59.227Z,18.82
2023-03-05T18:30:27.005Z,18.83
2023-03-05T18:32:55.192Z,18.81
2023-03-05T18:35:24.486Z,18.80
2023-03-05T18:37:52.211Z,18.81
2023-03-05T18:40:21.436Z,18.81
2023-03-05T18:42:49.659Z,18.81
2023-03-05T18:45:17.800Z,18.81
2023-03-05T18:47:46.850Z,18.81
2023-03-05T18:50:16.810Z,18.83
2023-03-05T18:52:45.875Z,18.82
2023-03-05T18:55:13.932Z,18.81
2023-03-05T18:57:41.616Z,18.82
2023-03-05T19:00:10.568Z,18.80
2023-03-05T19:02:38.255Z,18.81
2023-03-05T19:05:06.332Z,18.83
2023-03-05T19:07:35.227Z,18.81
2023-03-05T19:10:07.396Z,18.82
2023-03-05T19:12:38.237Z,18.82
2023-03-05T19:15:07.110Z,18.81
2023-03-05T19:17:34.790Z,18.80
2023-03-05T19:20:06.311Z,18.80
2023-03-05T19:22:34.040Z,18.81
2023-03-05T19:25:02.059Z,18.80
2023-03-05T19:27:31.082Z,18.80
2023-03-05T19:30:00.066Z,18.77
2023-03-05T19:32:27.824Z,18.76
2023-03-05T19:34:56.257Z,18.77
2023-03-05T19:37:23.978Z,18.80
2023-03-05T19:39:51.644Z,18.80
2023-03-05T19:42:19.346Z,18.79
2023-03-05T19:44:48.462Z,18.78
2023-03-05T19:47:16.125Z,18.78
2023-03-05T19:49:43.796Z,18.76
2023-03-05T19:52:11.462Z,18.76
2023-03-05T19:54:39.148Z,18.75
2023-03-05T19:57:06.852Z,18.76
2023-03-05T19:59:34.498Z,18.76
2023-03-05T20:02:03.589Z,18.77
2023-03-05T20:04:31.308Z,18.77
2023-03-05T20:06:59.206Z,18.77
2023-03-05T20:09:26.906Z,18.75
2023-03-05T20:11:56.782Z,18.73
2023-03-05T20:14:24.456Z,18.74
2023-03-05T20:16:52.138Z,18.74
2023-03-05T20:19:21.840Z,18.71
2023-03-05T20:21:49.536Z,18.72
2023-03-05T20:24:18.158Z,18.71
2023-03-05T20:26:46.413Z,18.72
2023-03-05T20:29:17.482Z,18.72
2023-03-05T20:31:45.770Z,18.72
2023-03-05T20:34:14.490Z,18.70
2023-03-05T20:36:43.579Z,18.71
2023-03-05T20:39:11.291Z,18.72
2023-03-05T20:41:39.760Z,18.73
2023-03-05T20:44:07.485Z,18.71
2023-03-05T20:46:36.300Z,18.68
2023-03-05T20:49:04.544Z,18.68
2023-03-05T20:51:33.830Z,18.68
2023-03-05T20:54:04.007Z,18.69
2023-03-05T20:56:32.402Z,18.69
2023-03-05T20:59:01.082Z,18.70
2023-03-05T21:01:28.989Z,18.70
2023-03-05T21:03:58.237Z,18.68
2023-03-05T21:06:26.054Z,18.69
2023-03-05T21:08:53.763Z,18.68
2023-03-05T21:11:22.924Z,18.69
2023-03-05T21:13:50.684Z,18.68
2023-03-05T21:16:19.294Z,18.68
2023-03-05T21:18:47.120Z,18.69
2023-03-05T21:21:14.800Z,18.68
2023-03-05T21:23:42.556Z,18.65
2023-03-05T21:26:10.344Z,18.64
2023-03-05T21:28:39.988Z,18.65
2023-03-05T21:31:08.779Z,18.67
2023-03-05T21:33:36.515Z,18.64
2023-03-05T21:36:05.062Z,18.63
2023-03-05T21:38:34.062Z,18.62
2023-03-05T21:41:02.265Z,18.61
2023-03-05T21:43:31.090Z,18.62
2023-03-05T21:46:00.688Z,18.60
2023-03-05T21:48:28.386Z,18.61
2023-03-05T21:50:56.117Z,18.60
2023-03-05T21:53:23.895Z,18.59
2023-03-05T21:56:25.422Z,18.57
2023-03-05T21:58:53.328Z,18.58
2023-03-05T22:01:22.500Z,18.58
2023-03-05T22:03:50.572Z,18.57
2023-03-05T22:06:18.854Z,18.55
2023-03-05T22:08:47.065Z,18.55
2023-03-05T22:11:15.974Z,18.55
2023-03-05T22:13:43.672Z,18.54
2023-03-05T22:16:11.491Z,18.53
2023-03-05T22:18:40.503Z,18.53
2023-03-05T22:21:18.063Z,18.51
2023-03-05T22:23:45.727Z,18.52
2023-03-05T22:26:13.399Z,18.52
2023-03-05T22:28:42.413Z,18.52
2023-03-05T22:31:10.562Z,18.52
2023-03-05T22:33:38.340Z,18.52
2023-03-05T22:36:12.078Z,18.51
2023-03-05T22:38:39.758Z,18.50
2023-03-05T22:41:08.489Z,18.48
2023-03-05T22:43:36.180Z,18.48
2023-03-05T22:46:10.229Z,18.48
2023-03-05T22:48:37.892Z,18.49
2023-03-05T22:51:05.715Z,18.50
2023-03-05T22:53:34.950Z,18.51
2023-03-05T22:56:06.714Z,18.51
2023-03-05T22:58:34.376Z,18.50
2023-03-05T23:01:02.053Z,18.51
2023-03-05T23:03:30.178Z,18.50
2023-03-05T23:05:57.879Z,18.50
2023-03-05T23:08:25.541Z,18.47
2023-03-05T23:10:54.585Z,18.48
2023-03-05T23:13:22.411Z,18.49
2023-03-05T23:15:50.117Z,18.48
2023-03-05T23:18:17.878Z,18.48
2023-03-05T23:20:45.548Z,18.48
2023-03-05T23:23:13.503Z,18.46
2023-03-05T23:25:41.388Z,18.48
2023-03-05T23:28:10.400Z,18.47
2023-03-05T23:30:39.397Z,18.46
2023-03-05T23:33:07.944Z,18.45
2023-03-05T23:35:36.939Z,18.44
2023-03-05T23:38:05.738Z,18.42
2023-03-05T23:40:34.686Z,18.42
2023-03-05T23:43:02.395Z,18.42
2023-03-05T23:45:31.551Z,18.42
2023-03-05T23:47:59.334Z,18.43
2023-03-05T23:50:28.214Z,18.43
2023-03-05T23:52:55.976Z,18.43
2023-03-05T23:55:24.988Z,18.43
2023-03-05T23:57:52.763Z,18.43
